createdAt,value
2022-12-04T04:16:30.883Z,52.90
2022-12-04T04:21:47.246Z,57.23
2022-12-04T04:26:51.338Z,59.30
2022-12-04T04:32:31.594Z,66.73
2022-12-04T04:38:24.583Z,74.03
2022-12-04T04:55:41.487Z,144.43
2022-12-04T05:00:59.359Z,160.80
2022-12-04T05:06:05.066Z,123.97
2022-12-04T05:11:07.685Z,136.10
2022-12-04T05:16:25.103Z,122.93
2022-12-04T05:21:50.865Z,48.50
2022-12-04T05:26:39.413Z,149.73
2022-12-04T05:31:55.380Z,108.03
2022-12-04T05:36:47.701Z,167.13
2022-12-04T05:41:32.178Z,353.73
2022-12-04T05:46:34.638Z,54.83
2022-12-04T05:51:25.124Z,242.03
2022-12-04T05:56:14.956Z,95.60
2022-12-04T06:00:58.952Z,245.23
2022-12-04T06:06:04.333Z,148.00
2022-12-04T06:10:53.900Z,51.17
2022-12-04T06:15:40.577Z,83.10
2022-12-04T06:20:40.955Z,276.73
2022-12-04T06:26:07.438Z,69.07
2022-12-04T06:30:52.949Z,188.73
2022-12-04T06:35:55.226Z,137.30
2022-12-04T06:40:42.626Z,103.73
2022-12-04T06:45:36.342Z,76.83
2022-12-04T06:50:33.679Z,126.90
2022-12-04T06:55:22.878Z,94.67
2022-12-04T07:00:15.039Z,67.63
2022-12-04T07:05:34.519Z,101.33
2022-12-04T07:10:22.947Z,177.40
2022-12-04T07:15:56.660Z,51.53
2022-12-04T07:20:47.798Z,88.30
2022-12-04T07:25:43.250Z,150.03
2022-12-04T07:31:22.420Z,217.50
2022-12-04T07:36:45.625Z,253.67
2022-12-04T07:41:50.628Z,253.90
2022-12-04T07:47:04.921Z,232.43
2022-12-04T07:52:15.706Z,169.83
2022-12-04T07:57:17.277Z,238.57
2022-12-04T08:02:35.595Z,276.57
2022-12-04T08:07:56.090Z,185.40
2022-12-04T08:13:18.046Z,98.33
2022-12-04T08:18:51.757Z,106.70
2022-12-04T08:23:52.881Z,117.63
2022-12-04T08:29:12.532Z,65.87
2022-12-04T08:34:08.168Z,71.40
2022-12-04T08:39:37.894Z,229.63
2022-12-04T08:44:43.421Z,62.73
2022-12-04T08:49:33.413Z,119.00
2022-12-04T08:54:21.936Z,139.07
2022-12-04T08:59:06.599Z,74.07
2022-12-04T09:03:58.332Z,67.77
2022-12-04T09:08:43.327Z,73.30
2022-12-04T09:13:34.021Z,55.43
2022-12-04T09:18:18.039Z,114.50
2022-12-04T09:23:35.702Z,70.37
2022-12-04T09:28:26.498Z,77.07
2022-12-04T09:33:29.462Z,60.03
2022-12-04T09:38:20.758Z,61.03
2022-12-04T09:43:24.080Z,55.63
2022-12-04T09:53:35.139Z,59.43
2022-12-04T09:58:22.870Z,58.80
2022-12-04T10:03:08.635Z,64.87
2022-12-04T10:14:32.236Z,57.17
2022-12-04T10:19:52.740Z,56.67
2022-12-04T13:24:25.798Z,51.43
2022-12-04T13:29:20.199Z,45.67
2022-12-04T13:34:39.246Z,46.37
2022-12-04T13:40:31.427Z,48.17
2022-12-04T13:45:48.418Z,49.70
2022-12-04T13:50:49.160Z,47.20
2022-12-04T13:55:39.927Z,50.67
2022-12-04T14:00:29.380Z,45.03
2022-12-04T14:05:16.177Z,38.80
2022-12-04T14:10:05.081Z,38.60
2022-12-04T14:15:04.209Z,36.07
2022-12-04T14:20:27.757Z,33.37
2022-12-04T14:25:49.106Z,32.70
2022-12-04T14:30:39.755Z,30.60
2022-12-04T14:35:41.845Z,32.70
2022-12-04T14:40:28.378Z,39.43
2022-12-04T14:45:46.378Z,47.40
2022-12-04T14:50:50.234Z,53.03
2022-12-04T14:56:12.162Z,50.03
2022-12-04T15:01:15.318Z,50.73
2022-12-04T15:06:17.284Z,53.33
2022-12-04T15:11:25.766Z,61.13
2022-12-04T15:16:15.114Z,54.17
2022-12-04T15:21:04.446Z,55.60
2022-12-04T15:26:19.020Z,61.00
2022-12-04T15:31:12.260Z,62.40
2022-12-04T15:36:42.558Z,56.80
2022-12-04T15:41:42.930Z,52.97
2022-12-04T15:46:35.712Z,56.93
2022-12-04T15:51:23.389Z,65.97
2022-12-04T15:56:27.935Z,62.07
2022-12-04T16:01:29.737Z,59.10
2022-12-04T16:06:21.272Z,61.00
2022-12-04T16:11:24.480Z,65.80
2022-12-04T16:16:14.040Z,62.23
2022-12-04T16:20:59.598Z,58.97
2022-12-04T16:25:51.051Z,66.30
2022-12-04T16:30:51.327Z,64.73
2022-12-04T16:41:48.202Z,61.50
2022-12-04T16:46:39.232Z,57.30
2022-12-04T16:51:25.118Z,56.10
2022-12-04T16:56:12.762Z,58.40
2022-12-04T17:01:01.389Z,53.47
2022-12-04T17:05:48.006Z,51.63
2022-12-04T17:10:35.799Z,58.87
2022-12-04T17:15:23.766Z,55.00
2022-12-04T17:20:14.823Z,63.27
2022-12-04T17:24:59.385Z,55.30
2022-12-04T17:29:49.498Z,54.33
2022-12-04T17:34:36.600Z,55.10
2022-12-04T17:39:25.040Z,50.17
2022-12-04T17:44:14.994Z,55.00
2022-12-04T17:49:48.137Z,45.80
2022-12-04T17:54:36.721Z,46.87
2022-12-04T17:59:36.172Z,48.80
2022-12-04T18:04:26.736Z,48.47
2022-12-04T18:09:15.511Z,42.27
2022-12-04T18:14:15.693Z,42.63
2022-12-04T18:19:12.637Z,37.50
2022-12-04T18:24:25.598Z,38.80
2022-12-04T18:29:29.264Z,35.17
2022-12-04T18:34:49.334Z,24.57
2022-12-04T18:39:56.411Z,18.17
2022-12-04T18:44:45.857Z,21.63
2022-12-04T18:49:30.071Z,21.53
2022-12-04T18:54:34.225Z,19.43
2022-12-04T18:59:39.244Z,16.33
2022-12-04T19:04:42.221Z,20.07
2022-12-04T19:15:37.565Z,19.60
2022-12-04T19:20:47.356Z,17.53
2022-12-04T19:30:40.758Z,15.23
2022-12-04T19:36:23.684Z,17.70
2022-12-04T19:41:15.260Z,16.90
2022-12-04T19:46:07.119Z,18.03
2022-12-04T19:50:54.246Z,18.40
2022-12-04T19:55:52.937Z,17.07
2022-12-04T20:01:03.048Z,18.53
2022-12-04T20:05:49.787Z,18.13
2022-12-04T20:11:22.714Z,20.03
2022-12-04T20:17:04.948Z,18.00
2022-12-04T20:22:39.216Z,17.73
2022-12-04T20:38:21.227Z,15.63
2022-12-04T20:43:10.458Z,17.90
2022-12-04T20:53:52.750Z,16.20
2022-12-04T20:59:09.693Z,17.70
2022-12-04T21:04:57.870Z,17.63
2022-12-04T21:10:51.040Z,17.33
2022-12-04T21:16:10.807Z,16.50
2022-12-04T21:21:31.291Z,15.43
2022-12-04T21:27:05.865Z,18.13
2022-12-04T21:38:38.340Z,16.27
2022-12-04T21:44:30.444Z,16.13
2022-12-04T21:50:18.671Z,15.50
2022-12-04T21:56:11.982Z,16.97
2022-12-04T22:00:59.046Z,16.53
2022-12-04T22:06:01.748Z,14.03
2022-12-04T22:11:22.489Z,14.33
2022-12-04T22:16:15.532Z,12.63
2022-12-04T22:21:01.638Z,11.70
2022-12-04T22:26:21.548Z,13.43
2022-12-04T22:31:56.648Z,11.53
2022-12-04T22:36:45.503Z,11.50
2022-12-04T22:42:24.782Z,10.10
2022-12-04T22:47:41.084Z,10.03
2022-12-04T22:52:42.199Z,10.63
2022-12-04T22:57:46.767Z,10.93
2022-12-04T23:08:07.814Z,12.87
2022-12-04T23:12:59.064Z,12.93
2022-12-04T23:17:47.321Z,14.17
2022-12-04T23:22:34.890Z,12.77
2022-12-04T23:27:26.939Z,15.63
2022-12-04T23:32:14.461Z,14.67
2022-12-04T23:36:58.390Z,14.73
2022-12-04T23:41:46.108Z,16.03
2022-12-04T23:46:56.502Z,16.73
2022-12-04T23:51:52.896Z,16.97
2022-12-04T23:56:43.850Z,17.30
